Etusivu
METAR-TAF:

METAR-TAF

Lentoasemat :

Winston Field

Snyder, Texas, Yhdysvallat

Leveyspiiri: 32-41-36N, Pituuspiiri: 100-57-01W, korkeus merenpinnasta: 741 m

Tämänhetkinen sää

Tämä raportti tehtiin 22 minuuttia sitten, kello 11.15 UTC
Tuuli 10 kn etelästä/kaakosta
Lämpötila 13°C
Kosteus 72%
Ilmanpaine 1013 hPa
Näkyvyys: 16.1 km
selkeää

METAR: KSNK 011115Z AUTO 16010KT 10SM CLR 13/08 A2990 RMK AO2 T01340075

Aika: 06:37 (11:37 UTC)


TAF: puuttuu

Säähavainnot ja -ennusteet yli 4000 lentoasemalta (METAR- ja TAF-raportit).

Käytössä olevat sääasemat on merkitty karttaan keltaisilla ja punaisilla pisteillä.

Aseta hiiri pisteen päälle nähdäksesi sääaseman nimen.

Klikkaa sitten nähdäksesi säähavainnot ja -ennusteet.

Kartan vaihtaminen: klikkaa mustalla rastilla varustettuja vihreitä pisteitä, niin voit zoomata sisään; viivalla varustettua vihreää pistettä, niin voit zoomata ulos tai vihreitä nuolia, niin pääset viereisille kartoille.


METAR-TAF: